AYPY/POM METAR and TAF weather

Enter ICAO airport designator
Station Type Date Time Source
AYPY METAR 2022/12/05 14:00 UTC NOAA

AYPY 051400Z 16005KT 9999 FEW050 25/23 Q1008=


Station Type Date Time Source
AYPY Decoded METAR 2022/12/05 14:00 UTC NOAA

Moresby, Papua New Guinea (AYPY) 09-26S 147-13E 49M
Dec 05, 2022 - 09:00 AM EST / 2022.12.05 1400 UTC
Wind: from the SSE (160 degrees) at 6 MPH (5 KT):0
Visibility: greater than 7 mile(s):0
Sky conditions: mostly clear
Temperature: 77 F (25 C)
Dew Point: 73 F (23 C)
Relative Humidity: 88%
Pressure (altimeter): 29.77 in. Hg (1008 hPa)
ob: AYPY 051400Z 16005KT 9999 FEW050 25/23 Q1008=
cycle: 14

Station Type Date Time Source
AYPY TAF 2022/12/05 12:27 UTC NOAA

TAF TAF AYPY 050712Z 0512/0612 13007KT 9999 SCT040 SCT140
FM052100 11005KT 9999 SCT018
FM060300 19005KT 9999 -SHRA SCT018 BKN030 PROB30 INTER 0604/0608 6000 TSRA BKN010 FEW018CB PROB30 0519/0521 VRB03KT 0600 FG

Example: see airport list